San Diego, California
Traffic Map
Current Weather Conditions
San Diego, California
Overcast
Overcast
62°
Feels Like: 62°
Wind Chill: 62° Ceiling: 2000
Heat Index: 62° Visibility: 10mi
Dew Point: 54° Wind: 9mph
Humidity: 75% Direction: 240° (WSW)
Pressure: 30.07in Gusts: 0mph
Raw Report DataKSAN 240551Z 24008KT 10SM FEW015 OVC020 17/12 A3007 RMK AO2 SLP182 T01670122 10183 20167 53025
Traffic Incident Summary
Active as of:
Severity:
Category:
InformationThere was an issue retrieving the traffic information for this location. Please try a different location or try again shortly.
Advertisements